• Join FlightAware (Why Join?)
  • Login
  • US Flag 
07:51PM EDT


 

Airport Tracker/Info


-or-


 

Live Flight TrackerFlight Track Log ✈ SWA1377 ✈ 25-Apr-2013 ✈ KSAT - KMDW

Flight Track Log - Related Links

Times and Time Zones

All times are in EDT time to prevent confusion due to time zone crossing. See the SWA1377 flight status page for this flight to view local times or setup timezone preferences in your user account.

Time Position Orientation Groundspeed Altitude Reporting Facility
EDT Latitude Longitude Course Direction KTS MPH feet Rate Location/Type
07:08AM 29.5483 -98.4464 42° Northeast 149 171 2,000  Level Houston Center
07:08AM 29.5581 -98.4364 42° Northeast 142 163 2,700 1,860 Climbing Houston Center
07:09AM 29.6050 -98.4150 22° Northeast 192 221 4,500 1,920 Climbing Houston Center
07:10AM 29.6792 -98.4108 North 281 323 6,600 2,940 Climbing Houston Center
07:11AM 29.7653 -98.4075 North 289 333 10,500 3,180 Climbing Houston Center
07:12AM 29.8606 -98.4033 North 342 394 13,100 3,120 Climbing Houston Center
07:13AM 29.9592 -98.3997 North 354 407 16,800 3,000 Climbing Houston Center
07:15AM 30.0589 -98.3953 North 358 412 19,200 2,340 Climbing Houston Center
07:16AM 30.1653 -98.3847 North 381 438 21,600 2,280 Climbing Houston Center
07:17AM 30.2794 -98.3669 North 411 473 23,900 2,040 Climbing Houston Center
07:18AM 30.3856 -98.3536 North 426 490 25,800 2,340 Climbing Houston Center
07:19AM 30.5069 -98.3347 North 433 498 28,700 2,040 Climbing Houston Center
07:20AM 30.6250 -98.3181 North 425 489 30,000 1,200 Climbing Houston Center
07:21AM 30.7511 -98.2981 North 443 510 31,200 1,440 Climbing Houston Center
07:22AM 30.8825 -98.2792 North 463 533 33,000 1,740 Climbing Houston Center
07:22AM 30.9639 -98.2683 North 461 531 34,100 1,740 Climbing Fort Worth Center
07:23AM 31.1061 -98.2456 North 461 531 35,900 1,620 Climbing Fort Worth Center
07:24AM 31.2294 -98.2297 North 460 529 37,400 1,320 Climbing Fort Worth Center
07:25AM 31.3528 -98.2111 North 447 514 38,600 780 Climbing Fort Worth Center
07:26AM 31.4781 -98.1906 North 447 514 39,000 180 Climbing Fort Worth Center
07:27AM 31.6036 -98.1694 North 447 514 39,000  Level Fort Worth Center
07:28AM 31.7186 -98.0947 29° Northeast 460 529 39,000  Level Fort Worth Center
07:29AM 31.8319 -98.0075 33° Northeast 468 539 39,000  Level Fort Worth Center
07:30AM 31.9344 -97.9300 33° Northeast 478 550 39,000  Level Fort Worth Center
07:31AM 32.0456 -97.8422 34° Northeast 478 550 39,000  Level Fort Worth Center
07:32AM 32.1647 -97.7472 34° Northeast 473 544 39,000  Level Fort Worth Center
07:33AM 32.2758 -97.6617 33° Northeast 479 551 39,000  Level Fort Worth Center
07:34AM 32.3864 -97.5783 32° Northeast 479 551 39,000  Level Fort Worth Center
07:35AM 32.4994 -97.4872 34° Northeast 474 545 39,000  Level Fort Worth Center
07:36AM 32.6100 -97.4011 33° Northeast 482 555 39,000  Level Fort Worth Center
07:37AM 32.7228 -97.3122 34° Northeast 482 555 39,000  Level Fort Worth Center
07:38AM 32.8333 -97.2181 36° Northeast 489 563 39,000  Level Fort Worth Center
07:39AM 32.9458 -97.1214 36° Northeast 500 575 39,000  Level Fort Worth Center
07:40AM 33.0603 -97.0194 37° Northeast 500 575 39,000  Level Fort Worth Center
07:41AM 33.1686 -96.9294 35° Northeast 495 570 39,000  Level Fort Worth Center
07:42AM 33.2789 -96.8344 36° Northeast 489 563 39,000  Level Fort Worth Center
07:43AM 33.3869 -96.7417 36° Northeast 484 557 39,000  Level Fort Worth Center
07:44AM 33.4969 -96.6436 37° Northeast 484 557 39,000  Level Fort Worth Center
07:45AM 33.6047 -96.5506 36° Northeast 484 557 39,000  Level Fort Worth Center
07:46AM 33.7128 -96.4544 36° Northeast 479 551 39,000  Level Fort Worth Center
07:47AM 33.8225 -96.3558 37° Northeast 479 551 39,000  Level Fort Worth Center
07:48AM 33.9197 -96.2722 36° Northeast 479 551 39,000  Level Fort Worth Center
07:49AM 34.0275 -96.1731 37° Northeast 474 545 39,000  Level Fort Worth Center
07:50AM 34.1286 -96.0811 37° Northeast 474 545 39,000  Level Fort Worth Center
07:51AM 34.2383 -95.9842 36° Northeast 467 537 39,000  Level Fort Worth Center
07:52AM 34.3456 -95.8867 37° Northeast 478 550 39,000  Level Fort Worth Center
07:53AM 34.4528 -95.7892 37° Northeast 478 550 39,000  Level Fort Worth Center
07:54AM 34.5622 -95.6911 36° Northeast 478 550 39,000  Level Fort Worth Center
07:56AM 34.7631 -95.5164 36° Northeast 471 542 39,000  Level Memphis Center
07:57AM 34.8692 -95.4167 38° Northeast 471 542 39,000  Level Memphis Center
07:58AM 34.9778 -95.3142 38° Northeast 471 542 39,000  Level Memphis Center
07:59AM 35.0858 -95.2164 37° Northeast 477 549 39,000  Level Memphis Center
08:00AM 35.1919 -95.1158 38° Northeast 477 549 39,000  Level Memphis Center
08:01AM 35.3000 -95.0178 37° Northeast 477 549 39,000  Level Memphis Center
08:02AM 35.4081 -94.9169 37° Northeast 477 549 39,000  Level Memphis Center
08:03AM 35.5161 -94.8131 38° Northeast 482 555 39,000  Level Memphis Center
08:04AM 35.6217 -94.7139 37° Northeast 482 555 39,000  Level Memphis Center
08:05AM 35.7294 -94.6122 37° Northeast 482 555 39,000  Level Memphis Center
08:06AM 35.8392 -94.5106 37° Northeast 482 555 39,000  Level Memphis Center
08:07AM 35.9447 -94.4081 38° Northeast 482 555 39,000  Level Memphis Center
08:08AM 36.0525 -94.3056 38° Northeast 477 549 39,000  Level Memphis Center
08:09AM 36.1597 -94.2028 38° Northeast 477 549 39,000  Level Memphis Center
08:10AM 36.2692 -94.1022 37° Northeast 482 555 39,000  Level Memphis Center
08:12AM 36.4506 -93.9786 29° Northeast 473 544 39,000  Level Kansas City Center
08:13AM 36.5650 -93.8978 30° Northeast 472 543 39,000  Level Kansas City Center
08:14AM 36.6800 -93.8169 29° Northeast 475 547 39,000  Level Kansas City Center
08:15AM 36.7997 -93.7328 29° Northeast 474 545 39,000  Level Kansas City Center
08:16AM 36.9128 -93.6519 30° Northeast 468 539 39,000  Level Kansas City Center
08:17AM 37.0264 -93.5694 30° Northeast 468 539 39,000  Level Kansas City Center
08:18AM 37.1397 -93.4892 29° Northeast 467 537 39,000  Level Kansas City Center
08:19AM 37.2522 -93.4092 30° Northeast 463 533 39,000  Level Kansas City Center
08:20AM 37.3664 -93.3289 29° Northeast 465 535 39,000  Level Kansas City Center
08:21AM 37.4725 -93.2269 37° Northeast 476 548 39,000  Level Kansas City Center
08:22AM 37.5808 -93.1275 36° Northeast 478 550 39,000  Level Kansas City Center
08:23AM 37.6911 -93.0264 36° Northeast 485 558 39,000  Level Kansas City Center
08:24AM 37.8219 -92.9025 37° Northeast 486 559 39,000  Level Kansas City Center
08:25AM 37.9308 -92.8000 37° Northeast 484 557 39,000  Level Kansas City Center
08:26AM 38.0242 -92.7119 37° Northeast 480 552 39,000  Level Kansas City Center
08:27AM 38.1308 -92.6122 36° Northeast 477 549 39,000  Level Kansas City Center
08:28AM 38.2569 -92.4931 37° Northeast 478 550 39,000  Level Kansas City Center
08:29AM 38.3656 -92.3894 37° Northeast 480 552 39,000  Level Kansas City Center
08:30AM 38.4736 -92.2886 36° Northeast 479 551 39,000  Level Kansas City Center
08:31AM 38.5797 -92.1861 37° Northeast 477 549 39,000  Level Kansas City Center
08:32AM 38.6864 -92.0836 37° Northeast 476 548 39,000  Level Kansas City Center
08:33AM 38.7925 -91.9797 37° Northeast 477 549 39,000  Level Kansas City Center
08:34AM 38.8989 -91.8761 37° Northeast 477 549 39,000  Level Kansas City Center
08:35AM 39.0039 -91.7747 37° Northeast 475 547 39,000  Level Kansas City Center
08:36AM 39.1056 -91.6756 37° Northeast 471 542 39,000  Level Kansas City Center
08:37AM 39.2092 -91.5678 39° Northeast 473 544 39,000  Level Kansas City Center
08:38AM 39.3081 -91.4511 42° Northeast 479 551 39,000  Level Kansas City Center
08:39AM 39.4058 -91.3350 43° Northeast 478 550 39,000  Level Kansas City Center
08:40AM 39.5222 -91.1986 42° Northeast 473 544 39,000  Level Kansas City Center
08:41AM 39.6203 -91.0814 43° Northeast 475 547 39,000  Level Kansas City Center
08:42AM 39.7189 -90.9647 42° Northeast 477 549 39,000  Level Kansas City Center
08:43AM 39.8222 -90.8389 43° Northeast 479 551 39,000 -120 Level Kansas City Center
08:44AM 39.9197 -90.7233 42° Northeast 476 548 38,800 -1,260 Descending Kansas City Center
08:45AM 40.0158 -90.6089 42° Northeast 470 541 36,400 -2,640 Descending Kansas City Center
08:46AM 40.1114 -90.4917 43° Northeast 470 541 33,400 -2,940 Descending Kansas City Center
08:47AM 40.1689 -90.4231 42° Northeast 470 541 31,600 -1,440 Descending Chicago Center
08:48AM 40.2619 -90.3083 43° Northeast 466 536 31,000 -540 Descending Chicago Center
08:49AM 40.3517 -90.1986 43° Northeast 444 511 30,600 -840 Descending Chicago Center
08:50AM 40.4614 -90.0631 43° Northeast 451 519 29,400 -1,260 Descending Chicago Center
08:51AM 40.5475 -89.9561 43° Northeast 447 514 28,000 -1,800 Descending Chicago Center
08:52AM 40.6347 -89.8492 43° Northeast 433 498 25,700 -2,160 Descending Chicago Center
08:53AM 40.7089 -89.7344 50° Northeast 419 482 23,600 -2,280 Descending Chicago Center
08:54AM 40.7747 -89.5739 62° Northeast 417 480 21,100 -2,160 Descending Chicago Center
08:55AM 40.8278 -89.4500 60° Northeast 405 466 19,200 -1,860 Descending Chicago Center
08:56AM 40.8803 -89.3289 60° Northeast 388 447 17,300 -1,080 Descending Chicago Center
08:57AM 40.9333 -89.2064 60° Northeast 385 443 17,000 -300 Descending Chicago Center
08:58AM 40.9828 -89.0892 61° Northeast 376 433 16,700 -660 Descending Chicago Center
08:59AM 41.0261 -88.9839 61° Northeast 335 386 15,700 -1,020 Descending Chicago Center
09:00AM 41.0708 -88.8714 62° Northeast 340 391 14,700 -1,080 Descending Chicago Center
09:01AM 41.0667 -88.7139 92° East 358 412 13,500 -1,080 Descending Chicago Center
09:02AM 41.1183 -88.6233 53° Northeast 319 367 12,500 -1,320 Descending Chicago Center
09:03AM 41.1839 -88.5497 40° Northeast 308 354 10,900 -1,500 Descending Chicago Center
09:04AM 41.2531 -88.4881 34° Northeast 301 346 9,400 -1,740 Descending Chicago Center
09:05AM 41.3239 -88.4475 23° Northeast 280 322 7,400 -1,680 Descending Chicago Center
09:07AM 41.3772 -88.3758 45° Northeast 282 325 6,000 -720 Descending Chicago Center
09:08AM 41.4219 -88.2617 62° Northeast 288 331 6,000  Level Chicago Center
09:09AM 41.4594 -88.1672 62° Northeast 287 330 6,000 -120 Level Chicago Center
09:10AM 41.4972 -88.0706 62° Northeast 287 330 5,800 -540 Descending Chicago Center
09:11AM 41.5244 -87.9661 71° East 296 341 5,000 -420 Descending Chicago Center
09:12AM 41.5497 -87.8678 71° East 287 330 5,000  Level Chicago Center
09:13AM 41.5614 -87.7686 81° East 278 320 5,000  Level Chicago Center
09:14AM 41.5633 -87.6797 88° East 257 296 5,000 -180 Level Chicago Center
09:15AM 41.5647 -87.5992 89° East 237 273 4,700 -540 Descending Chicago Center
09:16AM 41.5831 -87.5319 70° East 221 254 3,900 -840 Descending Chicago Center
09:17AM 41.6319 -87.5428 351° North 181 208 3,000 -480 Descending Chicago Center
09:18AM 41.6636 -87.5797 319° Northwest 163 188 3,000  Level Chicago Center
09:19AM 41.6917 -87.6206 313° West 156 180 3,000 -300 Level Chicago Center
09:20AM 41.7183 -87.6592 313° West 149 171 2,500 -600 Descending Chicago Center
09:21AM 41.7419 -87.6925 314° West 139 160 1,800 -780 Descending Chicago Center
09:22AM 41.7683 -87.7294 314° West 125 144 1,000 -780 Descending Chicago Center